Weather at Incheon Pier 7 Helipad

Public forecast

Using degrees Celsius for public forecast. Weather courtesy of forecast.io.

Closest aviation weather report (METAR) to Incheon Pier 7 Helipad

Closest report is Incheon International Airport, 6.9 nm (12.8 km) W. Retrieved 2020/10/19 23:30 UTC (5 minutes ago):

RKSI 192330Z 06005KT 0050 R15L/0175 R15R/0175N R34/0125 FG VV001 12/12 Q1028 NOSIG

Closest aviation forecast (TAF) to Incheon Pier 7 Helipad

Closest forecast is Incheon International Airport, 6.9 nm (12.8 km) W. Retrieved 2020/10/19 18:00 UTC (6 hours ago):

TAF RKSI 191700Z 1918/2024 07005KT 1800 BR NSC TN10/1920Z TX19/2005Z TN13/2020Z TEMPO 1920/1923 0800 FG SCT002 BECMG 2000/2001 12006KT 6000 NSW BECMG 2003/2004 28006KT CAVOK BECMG 2011/2012 08006KT 6000 NSC BECMG 2018/2019 16010KT FEW030 BKN120